King of Scandinavia — OVOL2 — position and weather

sailwx.info

Track history (hours):
 
Tides and Currents Weather Stations Pressure Air Temp Water Temp Dewpoint Dewpoint Depression Visibility Wind Speed Wind Dir Waves Ship Positions

King of Scandinavia

Ship's website: http://www.dfds.co.uk/DSW/EN/OnBoard/na/KING.htm

Last reported at 2017-Nov-24 09:21 UTC. Time now 2017-Nov-24 09:33 UTC.
Position N 54°59' W 001°27'.

Length 166 m; beam 27.6 m; draft 6.2 m.

Type: Ship. MMSI: 220449000.

Date/timePositionNaut miles runAvg speedWind from/ knotsBaromVisibWave heightAir tempDewpointWater temp
2017-Nov-24 09:21N 54°59' W 001°27'0 0.4
2017-Nov-24 09:00N 54°60' W 001°27'510.2
2017-Nov-24 08:31N 54°60' W 001°18'816.2
2017-Nov-24 08:01N 54°55' W 001°06'816.1
2017-Nov-24 07:30N 54°51' W 000°55'815.4
2017-Nov-24 07:01N 54°46' W 000°44'1415.3
2017-Nov-24 06:06N 54°39' W 000°23'415.6
2017-Nov-24 05:50N 54°36' W 000°17'515.7
2017-Nov-24 05:31N 54°33' W 000°10'815.8
2017-Nov-24 05:01N 54°29' E 000°01'815.9
2017-Nov-24 04:31N 54°25' E 000°12'815.9
2017-Nov-24 04:00N 54°20' E 000°24'15416.6
2017-Nov-23 18:41N 52°48' E 003°53'315.1
2017-Nov-23 18:30N 52°47' E 003°56'815.2
2017-Nov-23 18:00N 52°42' E 004°06'815.4
2017-Nov-23 17:30N 52°37' E 004°16'815.3
2017-Nov-23 17:01N 52°32' E 004°25'612.6
2017-Nov-23 16:31N 52°28' E 004°33'1 2.2
2017-Nov-23 16:00N 52°28' E 004°35'0 0.0
2017-Nov-23 15:28N 52°28' E 004°35'0 0.0
2017-Nov-23 14:55N 52°28' E 004°35'0 0.0
2017-Nov-23 14:25N 52°28' E 004°35'0 0.0
2017-Nov-23 13:55N 52°28' E 004°35'0 0.0
2017-Nov-23 13:28N 52°28' E 004°35'0 0.0
2017-Nov-23 12:58N 52°28' E 004°35'0 0.0
2017-Nov-23 12:28N 52°28' E 004°35'0 0.0
2017-Nov-23 11:58N 52°28' E 004°35'0 0.0
2017-Nov-23 11:28N 52°28' E 004°35'0 0.0
2017-Nov-23 10:58N 52°28' E 004°35'0 0.0
2017-Nov-23 10:25N 52°28' E 004°35'0 0.0
2017-Nov-23 09:58N 52°28' E 004°35'0 0.0
2017-Nov-23 09:30N 52°28' E 004°35'0 0.7
2017-Nov-23 09:00N 52°28' E 004°35'510.7
2017-Nov-23 08:31N 52°29' E 004°27'713.4
2017-Nov-23 08:00N 52°34' E 004°19'714.2
2017-Nov-23 07:30N 52°39' E 004°11'816.9
2017-Nov-23 07:00N 52°44' E 003°60'17716.3
2017-Nov-22 20:06N 54°29' W 000°02'218.0
2017-Nov-22 20:01N 54°30' W 000°04'918.7
2017-Nov-22 19:31N 54°35' W 000°17'  
2017-Nov-19 17:34N 52°37' E 004°14'114.4
2017-Nov-19 17:29N 52°37' E 004°16'714.5
2017-Nov-19 17:00N 52°32' E 004°25'713.1
2017-Nov-19 16:30N 52°28' E 004°33'1 2.7
2017-Nov-19 16:00N 52°28' E 004°35'0 0.0
2017-Nov-19 15:29N 52°28' E 004°35'0 0.0
2017-Nov-19 14:59N 52°28' E 004°35'0 0.0
2017-Nov-19 14:29N 52°28' E 004°35'0 0.0
2017-Nov-19 13:59N 52°28' E 004°35'0 0.0
2017-Nov-19 13:29N 52°28' E 004°35'0 0.0
2017-Nov-19 12:59N 52°28' E 004°35'0 0.0
2017-Nov-19 12:29N 52°28' E 004°35'0 0.0
2017-Nov-19 11:59N 52°28' E 004°35'0 0.0
2017-Nov-19 11:29N 52°28' E 004°35'0 0.0
2017-Nov-19 10:56N 52°28' E 004°35'0 0.0
2017-Nov-19 10:26N 52°28' E 004°35'0 0.0
2017-Nov-19 09:56N 52°28' E 004°35'0 0.0
2017-Nov-19 09:26N 52°28' E 004°35'0 0.0
2017-Nov-19 09:00N 52°28' E 004°35'0 0.8
2017-Nov-19 08:30N 52°28' E 004°35'715.0
2017-Nov-19 08:00N 52°31' E 004°24'917.2
2017-Nov-19 07:30N 52°38' E 004°14'16316.6
2017-Nov-18 21:43N 54°17' E 000°37'418.0
2017-Nov-18 21:30N 54°19' E 000°32'917.9
2017-Nov-18 21:01N 54°23' E 000°19'918.1
2017-Nov-18 20:31N 54°28' E 000°06'918.2
2017-Nov-18 20:01N 54°33' W 000°08'918.3
2017-Nov-18 19:30N 54°38' W 000°21'1918.7
2017-Nov-18 18:28N 54°48' W 000°50'919.0
2017-Nov-18 18:01N 54°53' W 001°02'1019.2
2017-Nov-18 17:30N 54°58' W 001°16'612.3
2017-Nov-18 17:01N 55°00' W 001°26'1 2.0
2017-Nov-18 16:31N 54°59' W 001°27'0 0.0
2017-Nov-18 15:53N 54°59' W 001°27'0 0.0
2017-Nov-18 15:23N 54°59' W 001°27'0 0.0
2017-Nov-18 14:56N 54°59' W 001°27'0 0.0
2017-Nov-18 14:26N 54°59' W 001°27'0 0.0
2017-Nov-18 13:56N 54°59' W 001°27'0 0.0
2017-Nov-18 13:26N 54°59' W 001°27'0 0.0
2017-Nov-18 12:56N 54°59' W 001°27'0 0.0
2017-Nov-18 12:26N 54°59' W 001°27'0 0.0
2017-Nov-18 11:59N 54°59' W 001°27'0 0.0
2017-Nov-18 11:29N 54°59' W 001°27'0 0.0
2017-Nov-18 10:59N 54°59' W 001°27'0 0.0
2017-Nov-18 10:26N 54°59' W 001°27'0 0.0
2017-Nov-18 09:59N 54°59' W 001°27'0 0.0
2017-Nov-18 09:17N 54°59' W 001°27'0 0.0
2017-Nov-18 09:00N 54°59' W 001°27'4 7.4
2017-Nov-18 08:30N 55°01' W 001°21'816.4
2017-Nov-18 08:00N 54°56' W 001°09'815.9
2017-Nov-18 07:30N 54°52' W 000°57'2315.2
2017-Nov-18 06:00N 54°40' W 000°24'714.5
2017-Nov-18 05:30N 54°36' W 000°13'816.0
2017-Nov-18 05:00N 54°31' W 000°02'816.6
2017-Nov-18 04:30N 54°27' E 000°10'816.6
2017-Nov-18 04:00N 54°22' E 000°22'17417.1
2017-Nov-17 17:52N 52°37' E 004°15'615.9
2017-Nov-17 17:31N 52°33' E 004°22'917.5
2017-Nov-17 17:00N 52°28' E 004°33'1 2.7
2017-Nov-17 16:30N 52°28' E 004°35'0 0.0
2017-Nov-17 15:59N 52°28' E 004°35'0 0.0
2017-Nov-17 15:28N 52°28' E 004°35'0 0.0
2017-Nov-17 14:58N 52°28' E 004°35'0 0.0
2017-Nov-17 14:19N 52°28' E 004°35'0 0.0
2017-Nov-17 13:58N 52°28' E 004°35'0 0.0
2017-Nov-17 13:28N 52°28' E 004°35'0 0.0
2017-Nov-17 12:58N 52°28' E 004°35'0 0.0
2017-Nov-17 12:28N 52°28' E 004°35'0 0.0
2017-Nov-17 11:58N 52°28' E 004°35'0 0.0
2017-Nov-17 11:28N 52°28' E 004°35'0 0.0
2017-Nov-17 10:58N 52°28' E 004°35'0 0.0
2017-Nov-17 10:25N 52°28' E 004°35'0 0.0
2017-Nov-17 09:58N 52°28' E 004°35'0 0.0
2017-Nov-17 09:25N 52°28' E 004°35'0 0.0
2017-Nov-17 08:58N 52°28' E 004°35'0 0.0
2017-Nov-17 08:28N 52°28' E 004°35'1 1.2
2017-Nov-17 08:01N 52°28' E 004°34'713.5
2017-Nov-17 07:30N 52°31' E 004°24'917.2
2017-Nov-17 07:00N 52°37' E 004°14'16317.8
2017-Nov-16 21:49N 54°17' E 000°37'618.2
2017-Nov-16 21:30N 54°20' E 000°29'918.1
2017-Nov-16 21:00N 54°25' E 000°16'918.2
2017-Nov-16 20:30N 54°30' E 000°02'918.1
2017-Nov-16 20:00N 54°34' W 000°11'918.2
2017-Nov-16 19:30N 54°39' W 000°24'1418.1
2017-Nov-16 18:43N 54°47' W 000°45'417.9
2017-Nov-16 18:28N 54°49' W 000°51'816.7
2017-Nov-16 18:00N 54°54' W 001°03'918.2
2017-Nov-16 17:30N 54°58' W 001°16'612.3
2017-Nov-16 17:00N 55°00' W 001°27'1 1.2
2017-Nov-16 16:30N 54°59' W 001°27'0 0.0
2017-Nov-16 15:54N 54°59' W 001°27'0 0.0
2017-Nov-16 15:24N 54°59' W 001°27'0 0.0
2017-Nov-16 14:57N 54°59' W 001°27'0 0.0
2017-Nov-16 14:27N 54°59' W 001°27'0 0.0
2017-Nov-16 13:57N 54°59' W 001°27'0 0.0
2017-Nov-16 13:27N 54°59' W 001°27'0 0.0
2017-Nov-16 12:57N 54°59' W 001°27'0 0.0
2017-Nov-16 12:27N 54°59' W 001°27'0 0.0
2017-Nov-16 12:00N 54°59' W 001°27'0 0.0
2017-Nov-16 11:30N 54°59' W 001°27'0 0.0
2017-Nov-16 11:00N 54°59' W 001°27'0 0.0
2017-Nov-16 10:30N 54°59' W 001°27'0 0.0
2017-Nov-16 10:00N 54°59' W 001°27'0 0.0
2017-Nov-16 09:30N 54°59' W 001°27'0 0.5
2017-Nov-16 09:00N 54°60' W 001°27'5 9.4
2017-Nov-16 08:30N 54°60' W 001°19'714.0
2017-Nov-16 08:00N 54°56' W 001°08'714.3
2017-Nov-16 07:30N 54°52' W 000°58'714.3
2017-Nov-16 07:00N 54°48' W 000°47'1917.3
2017-Nov-16 05:54N 54°38' W 000°20'717.2
2017-Nov-16 05:29N 54°34' W 000°09'817.1
2017-Nov-16 05:00N 54°30' E 000°03'816.7
2017-Nov-16 04:30N 54°25' E 000°15'816.4
2017-Nov-16 04:00N 54°21' E 000°27'15416.8
2017-Nov-15 18:50N 52°48' E 003°54'413.4
2017-Nov-15 18:30N 52°45' E 003°59'713.4
2017-Nov-15 18:00N 52°41' E 004°07'713.5
2017-Nov-15 17:30N 52°36' E 004°16'713.6
2017-Nov-15 17:00N 52°32' E 004°24'713.4
2017-Nov-15 16:30N 52°28' E 004°33'1 2.9
2017-Nov-15 16:00N 52°28' E 004°35'0 0.0
2017-Nov-15 15:26N 52°28' E 004°35'0 0.0
2017-Nov-15 14:59N 52°28' E 004°35'0 0.0
2017-Nov-15 14:29N 52°28' E 004°35'0 0.0
2017-Nov-15 13:59N 52°28' E 004°35'0 0.0
2017-Nov-15 13:29N 52°28' E 004°35'0 0.0
2017-Nov-15 12:59N 52°28' E 004°35'0 0.0
2017-Nov-15 12:29N 52°28' E 004°35'0 0.0
2017-Nov-15 11:56N 52°28' E 004°35'0 0.0
2017-Nov-15 11:29N 52°28' E 004°35'0 0.0
2017-Nov-15 10:56N 52°28' E 004°35'0 0.0
2017-Nov-15 10:29N 52°28' E 004°35'0 0.0
2017-Nov-15 09:59N 52°28' E 004°35'0 0.0
2017-Nov-15 09:30N 52°28' E 004°35'2 4.6
2017-Nov-15 09:00N 52°28' E 004°31'816.3
2017-Nov-15 08:30N 52°33' E 004°21'816.9
2017-Nov-15 08:00N 52°39' E 004°11'917.0
2017-Nov-15 07:30N 52°45' E 004°00'15217.4
2017-Nov-14 22:44N 54°17' E 000°36'517.0
2017-Nov-14 22:27N 54°20' E 000°29'716.9
2017-Nov-14 22:00N 54°24' E 000°19'816.6
2017-Nov-14 21:30N 54°28' E 000°06'816.6
2017-Nov-14 21:00N 54°32' W 000°05'816.5
2017-Nov-14 20:30N 54°37' W 000°17'2216.3
2017-Nov-14 19:10N 54°49' W 000°50'316.3
2017-Nov-14 19:00N 54°50' W 000°54'816.3
2017-Nov-14 18:30N 54°54' W 001°05'816.4
2017-Nov-14 18:00N 54°59' W 001°17'611.0
2017-Nov-14 17:30N 55°00' W 001°27'1 1.4
2017-Nov-14 17:00N 54°59' W 001°27'0 0.0
2017-Nov-14 16:19N 54°59' W 001°27'0 0.0
2017-Nov-14 15:52N 54°59' W 001°27'0 0.0
2017-Nov-14 15:22N 54°59' W 001°27'0 0.0
2017-Nov-14 14:55N 54°59' W 001°27'0 0.0
2017-Nov-14 14:25N 54°59' W 001°27'0 0.0
2017-Nov-14 13:55N 54°59' W 001°27'0 0.0
2017-Nov-14 13:25N 54°59' W 001°27'0 0.0
2017-Nov-14 12:55N 54°59' W 001°27'0 0.0
2017-Nov-14 12:25N 54°59' W 001°27'0 0.0
2017-Nov-14 11:58N 54°59' W 001°27'0 0.0
2017-Nov-14 11:28N 54°59' W 001°27'0 0.0
2017-Nov-14 10:58N 54°59' W 001°27'0 0.0
2017-Nov-14 10:28N 54°59' W 001°27'0 0.0
2017-Nov-14 10:00N 54°59' W 001°27'3 7.0
2017-Nov-14 09:31N 55°01' W 001°22'  
Track history (hours):
 
Tides and Currents Weather Stations Pressure Air Temp Water Temp Dewpoint Dewpoint Depression Visibility Wind Speed Wind Dir Waves Ship Positions

King of Scandinavia

Ship's website: http://www.dfds.co.uk/DSW/EN/OnBoard/na/KING.htm

Last reported at 2017-Nov-24 09:21 UTC. Time now 2017-Nov-24 09:33 UTC.
Position N 54°59' W 001°27'.

Length 166 m; beam 27.6 m; draft 6.2 m.

Type: Ship. MMSI: 220449000.

Date/timePositionNaut miles runAvg speedWind from/ knotsBaromVisibWave heightAir tempDewpointWater temp
2017-Nov-24 09:21N 54°59' W 001°27'0 0.4
2017-Nov-24 09:00N 54°60' W 001°27'510.2
2017-Nov-24 08:31N 54°60' W 001°18'816.2
2017-Nov-24 08:01N 54°55' W 001°06'816.1
2017-Nov-24 07:30N 54°51' W 000°55'815.4
2017-Nov-24 07:01N 54°46' W 000°44'1415.3
2017-Nov-24 06:06N 54°39' W 000°23'415.6
2017-Nov-24 05:50N 54°36' W 000°17'515.7
2017-Nov-24 05:31N 54°33' W 000°10'815.8
2017-Nov-24 05:01N 54°29' E 000°01'815.9
2017-Nov-24 04:31N 54°25' E 000°12'815.9
2017-Nov-24 04:00N 54°20' E 000°24'15416.6
2017-Nov-23 18:41N 52°48' E 003°53'315.1
2017-Nov-23 18:30N 52°47' E 003°56'815.2
2017-Nov-23 18:00N 52°42' E 004°06'815.4
2017-Nov-23 17:30N 52°37' E 004°16'815.3
2017-Nov-23 17:01N 52°32' E 004°25'612.6
2017-Nov-23 16:31N 52°28' E 004°33'1 2.2
2017-Nov-23 16:00N 52°28' E 004°35'0 0.0
2017-Nov-23 15:28N 52°28' E 004°35'0 0.0
2017-Nov-23 14:55N 52°28' E 004°35'0 0.0
2017-Nov-23 14:25N 52°28' E 004°35'0 0.0
2017-Nov-23 13:55N 52°28' E 004°35'0 0.0
2017-Nov-23 13:28N 52°28' E 004°35'0 0.0
2017-Nov-23 12:58N 52°28' E 004°35'0 0.0
2017-Nov-23 12:28N 52°28' E 004°35'0 0.0
2017-Nov-23 11:58N 52°28' E 004°35'0 0.0
2017-Nov-23 11:28N 52°28' E 004°35'0 0.0
2017-Nov-23 10:58N 52°28' E 004°35'0 0.0
2017-Nov-23 10:25N 52°28' E 004°35'0 0.0
2017-Nov-23 09:58N 52°28' E 004°35'0 0.0
2017-Nov-23 09:30N 52°28' E 004°35'0 0.7
2017-Nov-23 09:00N 52°28' E 004°35'510.7
2017-Nov-23 08:31N 52°29' E 004°27'713.4
2017-Nov-23 08:00N 52°34' E 004°19'714.2
2017-Nov-23 07:30N 52°39' E 004°11'816.9
2017-Nov-23 07:00N 52°44' E 003°60'17716.3
2017-Nov-22 20:06N 54°29' W 000°02'218.0
2017-Nov-22 20:01N 54°30' W 000°04'918.7
2017-Nov-22 19:31N 54°35' W 000°17'  
2017-Nov-19 17:34N 52°37' E 004°14'114.4
2017-Nov-19 17:29N 52°37' E 004°16'714.5
2017-Nov-19 17:00N 52°32' E 004°25'713.1
2017-Nov-19 16:30N 52°28' E 004°33'1 2.7
2017-Nov-19 16:00N 52°28' E 004°35'0 0.0
2017-Nov-19 15:29N 52°28' E 004°35'0 0.0
2017-Nov-19 14:59N 52°28' E 004°35'0 0.0
2017-Nov-19 14:29N 52°28' E 004°35'0 0.0
2017-Nov-19 13:59N 52°28' E 004°35'0 0.0
2017-Nov-19 13:29N 52°28' E 004°35'0 0.0
2017-Nov-19 12:59N 52°28' E 004°35'0 0.0
2017-Nov-19 12:29N 52°28' E 004°35'0 0.0
2017-Nov-19 11:59N 52°28' E 004°35'0 0.0
2017-Nov-19 11:29N 52°28' E 004°35'0 0.0
2017-Nov-19 10:56N 52°28' E 004°35'0 0.0
2017-Nov-19 10:26N 52°28' E 004°35'0 0.0
2017-Nov-19 09:56N 52°28' E 004°35'0 0.0
2017-Nov-19 09:26N 52°28' E 004°35'0 0.0
2017-Nov-19 09:00N 52°28' E 004°35'0 0.8
2017-Nov-19 08:30N 52°28' E 004°35'715.0
2017-Nov-19 08:00N 52°31' E 004°24'917.2
2017-Nov-19 07:30N 52°38' E 004°14'16316.6
2017-Nov-18 21:43N 54°17' E 000°37'418.0
2017-Nov-18 21:30N 54°19' E 000°32'917.9
2017-Nov-18 21:01N 54°23' E 000°19'918.1
2017-Nov-18 20:31N 54°28' E 000°06'918.2
2017-Nov-18 20:01N 54°33' W 000°08'918.3
2017-Nov-18 19:30N 54°38' W 000°21'1918.7
2017-Nov-18 18:28N 54°48' W 000°50'919.0
2017-Nov-18 18:01N 54°53' W 001°02'1019.2
2017-Nov-18 17:30N 54°58' W 001°16'612.3
2017-Nov-18 17:01N 55°00' W 001°26'1 2.0
2017-Nov-18 16:31N 54°59' W 001°27'0 0.0
2017-Nov-18 15:53N 54°59' W 001°27'0 0.0
2017-Nov-18 15:23N 54°59' W 001°27'0 0.0
2017-Nov-18 14:56N 54°59' W 001°27'0 0.0
2017-Nov-18 14:26N 54°59' W 001°27'0 0.0
2017-Nov-18 13:56N 54°59' W 001°27'0 0.0
2017-Nov-18 13:26N 54°59' W 001°27'0 0.0
2017-Nov-18 12:56N 54°59' W 001°27'0 0.0
2017-Nov-18 12:26N 54°59' W 001°27'0 0.0
2017-Nov-18 11:59N 54°59' W 001°27'0 0.0
2017-Nov-18 11:29N 54°59' W 001°27'0 0.0
2017-Nov-18 10:59N 54°59' W 001°27'0 0.0
2017-Nov-18 10:26N 54°59' W 001°27'0 0.0
2017-Nov-18 09:59N 54°59' W 001°27'0 0.0
2017-Nov-18 09:17N 54°59' W 001°27'0 0.0
2017-Nov-18 09:00N 54°59' W 001°27'4 7.4
2017-Nov-18 08:30N 55°01' W 001°21'816.4
2017-Nov-18 08:00N 54°56' W 001°09'815.9
2017-Nov-18 07:30N 54°52' W 000°57'2315.2
2017-Nov-18 06:00N 54°40' W 000°24'714.5
2017-Nov-18 05:30N 54°36' W 000°13'816.0
2017-Nov-18 05:00N 54°31' W 000°02'816.6
2017-Nov-18 04:30N 54°27' E 000°10'816.6
2017-Nov-18 04:00N 54°22' E 000°22'17417.1
2017-Nov-17 17:52N 52°37' E 004°15'615.9
2017-Nov-17 17:31N 52°33' E 004°22'917.5
2017-Nov-17 17:00N 52°28' E 004°33'1 2.7
2017-Nov-17 16:30N 52°28' E 004°35'0 0.0
2017-Nov-17 15:59N 52°28' E 004°35'0 0.0
2017-Nov-17 15:28N 52°28' E 004°35'0 0.0
2017-Nov-17 14:58N 52°28' E 004°35'0 0.0
2017-Nov-17 14:19N 52°28' E 004°35'0 0.0
2017-Nov-17 13:58N 52°28' E 004°35'0 0.0
2017-Nov-17 13:28N 52°28' E 004°35'0 0.0
2017-Nov-17 12:58N 52°28' E 004°35'0 0.0
2017-Nov-17 12:28N 52°28' E 004°35'0 0.0
2017-Nov-17 11:58N 52°28' E 004°35'0 0.0
2017-Nov-17 11:28N 52°28' E 004°35'0 0.0
2017-Nov-17 10:58N 52°28' E 004°35'0 0.0
2017-Nov-17 10:25N 52°28' E 004°35'0 0.0
2017-Nov-17 09:58N 52°28' E 004°35'0 0.0
2017-Nov-17 09:25N 52°28' E 004°35'0 0.0
2017-Nov-17 08:58N 52°28' E 004°35'0 0.0
2017-Nov-17 08:28N 52°28' E 004°35'1 1.2
2017-Nov-17 08:01N 52°28' E 004°34'713.5
2017-Nov-17 07:30N 52°31' E 004°24'917.2
2017-Nov-17 07:00N 52°37' E 004°14'16317.8
2017-Nov-16 21:49N 54°17' E 000°37'618.2
2017-Nov-16 21:30N 54°20' E 000°29'918.1
2017-Nov-16 21:00N 54°25' E 000°16'918.2
2017-Nov-16 20:30N 54°30' E 000°02'918.1
2017-Nov-16 20:00N 54°34' W 000°11'918.2
2017-Nov-16 19:30N 54°39' W 000°24'1418.1
2017-Nov-16 18:43N 54°47' W 000°45'417.9
2017-Nov-16 18:28N 54°49' W 000°51'816.7
2017-Nov-16 18:00N 54°54' W 001°03'918.2
2017-Nov-16 17:30N 54°58' W 001°16'612.3
2017-Nov-16 17:00N 55°00' W 001°27'1 1.2
2017-Nov-16 16:30N 54°59' W 001°27'0 0.0
2017-Nov-16 15:54N 54°59' W 001°27'0 0.0
2017-Nov-16 15:24N 54°59' W 001°27'0 0.0
2017-Nov-16 14:57N 54°59' W 001°27'0 0.0
2017-Nov-16 14:27N 54°59' W 001°27'0 0.0
2017-Nov-16 13:57N 54°59' W 001°27'0 0.0
2017-Nov-16 13:27N 54°59' W 001°27'0 0.0
2017-Nov-16 12:57N 54°59' W 001°27'0 0.0
2017-Nov-16 12:27N 54°59' W 001°27'0 0.0
2017-Nov-16 12:00N 54°59' W 001°27'0 0.0
2017-Nov-16 11:30N 54°59' W 001°27'0 0.0
2017-Nov-16 11:00N 54°59' W 001°27'0 0.0
2017-Nov-16 10:30N 54°59' W 001°27'0 0.0
2017-Nov-16 10:00N 54°59' W 001°27'0 0.0
2017-Nov-16 09:30N 54°59' W 001°27'0 0.5
2017-Nov-16 09:00N 54°60' W 001°27'5 9.4
2017-Nov-16 08:30N 54°60' W 001°19'714.0
2017-Nov-16 08:00N 54°56' W 001°08'714.3
2017-Nov-16 07:30N 54°52' W 000°58'714.3
2017-Nov-16 07:00N 54°48' W 000°47'1917.3
2017-Nov-16 05:54N 54°38' W 000°20'717.2
2017-Nov-16 05:29N 54°34' W 000°09'817.1
2017-Nov-16 05:00N 54°30' E 000°03'816.7
2017-Nov-16 04:30N 54°25' E 000°15'816.4
2017-Nov-16 04:00N 54°21' E 000°27'15416.8
2017-Nov-15 18:50N 52°48' E 003°54'413.4
2017-Nov-15 18:30N 52°45' E 003°59'713.4
2017-Nov-15 18:00N 52°41' E 004°07'713.5
2017-Nov-15 17:30N 52°36' E 004°16'713.6
2017-Nov-15 17:00N 52°32' E 004°24'713.4
2017-Nov-15 16:30N 52°28' E 004°33'1 2.9
2017-Nov-15 16:00N 52°28' E 004°35'0 0.0
2017-Nov-15 15:26N 52°28' E 004°35'0 0.0
2017-Nov-15 14:59N 52°28' E 004°35'0 0.0
2017-Nov-15 14:29N 52°28' E 004°35'0 0.0
2017-Nov-15 13:59N 52°28' E 004°35'0 0.0
2017-Nov-15 13:29N 52°28' E 004°35'0 0.0
2017-Nov-15 12:59N 52°28' E 004°35'0 0.0
2017-Nov-15 12:29N 52°28' E 004°35'0 0.0
2017-Nov-15 11:56N 52°28' E 004°35'0 0.0
2017-Nov-15 11:29N 52°28' E 004°35'0 0.0
2017-Nov-15 10:56N 52°28' E 004°35'0 0.0
2017-Nov-15 10:29N 52°28' E 004°35'0 0.0
2017-Nov-15 09:59N 52°28' E 004°35'0 0.0
2017-Nov-15 09:30N 52°28' E 004°35'2 4.6
2017-Nov-15 09:00N 52°28' E 004°31'816.3
2017-Nov-15 08:30N 52°33' E 004°21'816.9
2017-Nov-15 08:00N 52°39' E 004°11'917.0
2017-Nov-15 07:30N 52°45' E 004°00'15217.4
2017-Nov-14 22:44N 54°17' E 000°36'517.0
2017-Nov-14 22:27N 54°20' E 000°29'716.9
2017-Nov-14 22:00N 54°24' E 000°19'816.6
2017-Nov-14 21:30N 54°28' E 000°06'816.6
2017-Nov-14 21:00N 54°32' W 000°05'816.5
2017-Nov-14 20:30N 54°37' W 000°17'2216.3
2017-Nov-14 19:10N 54°49' W 000°50'316.3
2017-Nov-14 19:00N 54°50' W 000°54'816.3
2017-Nov-14 18:30N 54°54' W 001°05'816.4
2017-Nov-14 18:00N 54°59' W 001°17'611.0
2017-Nov-14 17:30N 55°00' W 001°27'1 1.4
2017-Nov-14 17:00N 54°59' W 001°27'0 0.0
2017-Nov-14 16:19N 54°59' W 001°27'0 0.0
2017-Nov-14 15:52N 54°59' W 001°27'0 0.0
2017-Nov-14 15:22N 54°59' W 001°27'0 0.0
2017-Nov-14 14:55N 54°59' W 001°27'0 0.0
2017-Nov-14 14:25N 54°59' W 001°27'0 0.0
2017-Nov-14 13:55N 54°59' W 001°27'0 0.0
2017-Nov-14 13:25N 54°59' W 001°27'0 0.0
2017-Nov-14 12:55N 54°59' W 001°27'0 0.0
2017-Nov-14 12:25N 54°59' W 001°27'0 0.0
2017-Nov-14 11:58N 54°59' W 001°27'0 0.0
2017-Nov-14 11:28N 54°59' W 001°27'0 0.0
2017-Nov-14 10:58N 54°59' W 001°27'0 0.0
2017-Nov-14 10:28N 54°59' W 001°27'0 0.0
2017-Nov-14 10:00N 54°59' W 001°27'3 7.0
2017-Nov-14 09:31N 55°01' W 001°22'  

Dump ship's entire track history